Latest Weather Observations for Nullo Mountain

IDN60801

Issued at 10:05 pm EST Monday 28 July 2014 (issued every 30 minutes, with the page automatically refreshed every 10 minutes)

About weather observations | Map of weather stations | Latest weather observations for NSW | Other Formats
Station Details ID: 062100 Name: NULLO MOUNTAIN AWS Lat: -32.72 Lon: 150.23 Height: 1130.0 m
Data from the previous 72 hours. | See also: Recent months at Nullo Mountain
Date/Time
EST
Temp
°C
App
Temp
°C
Dew
Point
Rel
Hum
%
Delta-T
°C
Wind Press
QNH
hPa
Press
MSL
hPa
Rain
since 9 am
mm
Dir
 
Spd
km/h
Gust
km/h
Spd
kts
Gust
kts
28/10:00pm 4.8 1.5 2.2 83 1.1 WNW 9 19 5 10 - - 0.0
28/09:30pm 4.7 1.4 2.2 84 1.1 W 9 17 5 9 - - 0.0
28/09:00pm 4.7 1.4 2.4 85 1.0 W 9 20 5 11 - - 0.0
28/08:30pm 4.8 1.1 2.3 84 1.1 WNW 11 20 6 11 - - 0.0
28/08:00pm 4.9 1.6 2.3 83 1.1 WNW 9 19 5 10 - - 0.0
28/07:30pm 4.8 1.4 2.0 82 1.2 WNW 9 15 5 8 - - 0.0
28/07:00pm 4.9 1.5 1.9 81 1.3 WNW 9 15 5 8 - - 0.0
28/06:30pm 5.3 2.3 2.1 80 1.4 WNW 7 15 4 8 - - 0.0
28/06:00pm 5.7 2.4 2.2 78 1.5 WNW 9 19 5 10 - - 0.0
28/05:30pm 6.0 2.6 2.1 76 1.7 WNW 9 17 5 9 - - 0.0
28/05:00pm 6.9 3.6 2.4 73 2.0 WNW 9 19 5 10 - - 0.0
28/04:30pm 7.7 4.1 3.0 72 2.1 WNW 11 20 6 11 - - 0.0
28/04:00pm 8.2 4.2 3.1 70 2.3 WNW 13 24 7 13 - - 0.0
28/03:30pm 9.0 5.7 2.6 64 2.9 WNW 9 17 5 9 - - 0.0
28/03:00pm 9.9 6.3 3.0 62 3.2 WNW 11 20 6 11 - - 0.0
28/02:30pm 9.3 5.4 3.5 67 2.7 W 13 24 7 13 - - 0.0
28/02:00pm 8.3 4.7 2.8 68 2.5 W 11 22 6 12 - - 0.0
28/01:30pm 8.9 4.5 2.7 65 2.8 W 15 22 8 12 - - 0.0
28/01:00pm 9.0 5.2 3.8 70 2.4 W 13 26 7 14 - - 0.0
28/12:30pm 9.2 5.9 4.4 72 2.3 W 11 24 6 13 - - 0.0
28/12:00pm 7.8 3.5 3.1 72 2.1 W 15 24 8 13 - - 0.0
28/11:30am 6.9 2.6 3.0 76 1.8 W 15 26 8 14 - - 0.0
28/11:00am 7.0 3.1 3.4 78 1.6 W 13 24 7 13 - - 0.0
28/10:30am 6.2 2.2 3.0 80 1.4 W 13 24 7 13 - - 0.0
28/10:00am 5.1 0.7 2.5 83 1.1 W 15 26 8 14 - - 0.0
28/09:30am 4.8 1.5 2.5 85 1.0 W 9 17 5 9 - - 0.0
28/09:00am 4.6 1.2 2.1 84 1.1 W 9 15 5 8 - - 0.0
28/08:30am 4.5 0.8 2.4 86 0.9 W 11 20 6 11 - - 0.0
28/08:00am 3.7 0.3 1.9 88 0.8 WSW 9 22 5 12 - - 0.0
28/07:30am 3.2 -0.2 1.9 91 0.5 WSW 9 22 5 12 - - 0.0
28/07:00am 2.9 -0.9 1.7 92 0.5 W 11 20 6 11 - - 0.0
28/06:30am 2.9 -0.9 1.7 92 0.5 W 11 19 6 10 - - 0.0
28/06:00am 3.1 -0.7 1.8 91 0.5 W 11 17 6 9 - - 0.0
28/05:30am 3.2 -0.9 2.0 92 0.5 WSW 13 22 7 12 - - 0.0
28/05:00am 3.0 -0.8 1.8 92 0.5 W 11 22 6 12 - - 0.0
28/04:30am 3.4 -0.4 1.8 89 0.7 W 11 20 6 11 - - 0.0
28/04:00am 3.5 -0.7 1.7 88 0.8 WSW 13 24 7 13 - - 0.0
28/03:30am 3.2 -1.3 2.0 92 0.5 WSW 15 24 8 13 - - 0.0
28/03:00am 3.0 -1.1 2.3 95 0.3 W 13 26 7 14 - - 0.0
28/02:30am 2.9 -2.3 2.5 97 0.2 W 19 26 10 14 - - 0.0
28/02:00am 2.9 -1.1 2.8 99 0.0 W 13 24 7 13 - - 0.0
28/01:30am 2.8 -0.1 2.4 97 0.2 WNW 7 15 4 8 - - 0.0
28/01:00am 3.1 0.1 2.2 94 0.4 WNW 7 15 4 8 - - 0.0
28/12:30am 3.7 0.7 1.9 88 0.8 WNW 7 13 4 7 - - 0.0
28/12:00am 4.0 1.1 1.7 85 1.0 NW 6 11 3 6 - - 0.0
 
Date/Time
EST
Temp
°C
App
Temp
°C
Dew
Point
Rel
Hum
%
Delta-T
°C
Wind Press
QNH
hPa
Press
MSL
hPa
Rain
since 9 am
mm
Dir
 
Spd
km/h
Gust
km/h
Spd
kts
Gust
kts
27/11:30pm 3.7 0.9 2.1 89 0.7 NW 6 9 3 5 - - 0.0
27/11:00pm 4.0 1.3 2.5 90 0.6 WNW 6 9 3 5 - - 0.0
27/10:30pm 3.7 0.4 2.7 93 0.4 WSW 9 13 5 7 - - 0.0
27/10:00pm 3.8 0.1 2.6 92 0.5 WSW 11 19 6 10 - - 0.0
27/09:30pm 4.1 0.9 2.8 91 0.6 WSW 9 17 5 9 - - 0.0
27/09:00pm 4.5 0.2 3.2 91 0.6 WSW 15 22 8 12 - - 0.0
27/08:30pm 4.2 1.5 2.9 91 0.6 NW 6 7 3 4 - - 0.0
27/08:00pm 5.0 2.4 3.0 87 0.9 WSW 6 15 3 8 - - 0.0
27/07:30pm 5.3 2.6 2.7 83 1.1 W 6 15 3 8 - - 0.0
27/07:00pm 5.9 2.9 2.2 77 1.6 W 7 11 4 6 - - 0.0
27/06:30pm 6.1 3.7 2.0 75 1.8 W 4 7 2 4 - - 0.0
27/06:00pm 6.6 3.6 2.1 73 2.0 W 7 15 4 8 - - 0.0
27/05:30pm 7.2 4.4 2.9 74 1.9 W 7 11 4 6 - - 0.0
27/05:00pm 7.9 5.1 3.2 72 2.1 WSW 7 13 4 7 - - 0.0
27/04:30pm 8.6 5.8 3.2 69 2.5 W 7 11 4 6 - - 0.0
27/04:00pm 8.9 4.8 2.3 63 3.0 W 13 24 7 13 - - 0.0
27/03:30pm 9.3 6.1 2.9 64 2.9 W 9 17 5 9 - - 0.0
27/03:00pm 10.4 7.4 4.3 66 2.9 W 9 17 5 9 - - 0.0
27/02:30pm 10.6 8.2 4.3 65 3.0 WNW 6 11 3 6 - - 0.0
27/02:00pm 10.1 7.6 4.7 69 2.6 W 7 15 4 8 - - 0.0
27/01:30pm 10.3 7.8 4.5 67 2.8 WSW 7 15 4 8 - - 0.0
27/01:00pm 9.5 6.3 2.8 63 3.1 SSW 9 17 5 9 - - 0.0
27/12:30pm 8.8 6.0 3.0 67 2.7 SW 7 15 4 8 - - 0.0
27/12:00pm 8.4 5.1 2.4 66 2.7 WSW 9 19 5 10 - - 0.0
27/11:30am 8.0 4.5 3.7 74 2.0 SW 11 15 6 8 - - 0.0
27/11:00am 7.5 4.4 3.6 76 1.8 SW 9 19 5 10 - - 0.0
27/10:30am 6.9 3.0 3.2 77 1.7 SSW 13 17 7 9 - - 0.0
27/10:00am 6.1 2.5 2.9 80 1.4 SSW 11 19 6 10 - - 0.0
27/09:30am 5.8 2.6 3.0 82 1.2 SSW 9 15 5 8 - - 0.0
27/09:00am 5.1 0.7 2.5 83 1.1 S 15 22 8 12 - - 3.6
27/08:30am 4.3 0.7 2.7 89 0.7 S 11 20 6 11 - - 3.6
27/08:00am 3.6 -0.1 2.4 92 0.5 S 11 17 6 9 - - 3.6
27/07:30am 3.0 -0.4 2.0 93 0.4 S 9 13 5 7 - - 3.4
27/07:00am 2.9 -0.1 2.2 95 0.3 S 7 13 4 7 - - 3.4
27/06:30am 2.8 -0.2 2.1 95 0.3 SSW 7 15 4 8 - - 3.4
27/06:00am 3.2 -0.9 2.5 95 0.3 SW 13 24 7 13 - - 3.4
27/05:30am 3.4 -1.0 2.8 96 0.3 SSW 15 26 8 14 - - 3.4
27/05:00am 3.1 -1.4 2.4 95 0.3 SSW 15 24 8 13 - - 3.4
27/04:30am 3.1 -1.3 2.5 96 0.3 SSW 15 24 8 13 - - 3.4
27/04:00am 3.0 -1.0 2.7 98 0.1 SW 13 20 7 11 - - 3.4
27/03:30am 3.0 -1.0 2.9 99 0.0 SW 13 20 7 11 - - 3.4
27/03:00am 3.2 -0.8 2.9 98 0.1 SW 13 20 7 11 - - 3.4
27/02:30am 3.3 -0.6 3.2 99 0.0 WSW 13 24 7 13 - - 3.4
27/02:00am 3.6 -0.7 3.5 99 0.0 WSW 15 24 8 13 - - 3.4
27/01:30am 3.7 -0.2 3.3 97 0.2 WSW 13 24 7 13 - - 3.4
27/01:00am 3.9 0.4 3.3 96 0.3 W 11 19 6 10 - - 3.4
27/12:30am 4.0 0.1 3.4 96 0.3 WSW 13 20 7 11 - - 3.4
27/12:00am 4.1 0.6 3.4 95 0.3 WSW 11 20 6 11 - - 3.4
 
Date/Time
EST
Temp
°C
App
Temp
°C
Dew
Point
Rel
Hum
%
Delta-T
°C
Wind Press
QNH
hPa
Press
MSL
hPa
Rain
since 9 am
mm
Dir
 
Spd
km/h
Gust
km/h
Spd
kts
Gust
kts
26/11:30pm 4.4 0.9 3.5 94 0.4 WSW 11 20 6 11 - - 3.4
26/11:00pm 4.7 1.6 3.4 91 0.6 W 9 20 5 11 - - 3.4
26/10:30pm 5.0 1.5 3.3 89 0.8 WSW 11 20 6 11 - - 3.4
26/10:00pm 5.0 2.2 3.3 89 0.8 WSW 7 11 4 6 - - 3.4
26/09:30pm 5.1 2.3 3.1 87 0.9 WSW 7 13 4 7 - - 3.4
26/09:00pm 5.2 2.0 3.1 86 0.9 WSW 9 15 5 8 - - 3.4
26/08:30pm 5.6 2.4 3.1 84 1.1 WSW 9 17 5 9 - - 3.4
26/08:00pm 5.6 2.4 3.1 84 1.1 W 9 15 5 8 - - 3.4
26/07:30pm 5.8 3.1 2.4 79 1.5 WSW 6 13 3 7 - - 3.4
26/07:00pm 6.0 3.2 2.1 76 1.7 WSW 6 15 3 8 - - 3.4
26/06:30pm 6.7 3.3 2.0 72 2.1 WSW 9 19 5 10 - - 3.4
26/06:00pm 6.7 3.6 1.6 70 2.2 W 7 17 4 9 - - 3.4
26/05:30pm 7.4 3.5 1.3 65 2.6 WSW 11 24 6 13 - - 3.4
26/05:00pm 8.1 3.9 1.9 65 2.7 WSW 13 30 7 16 - - 3.4
26/04:30pm 8.7 5.0 2.3 64 2.9 WSW 11 17 6 9 - - 3.4
26/04:00pm 9.1 4.5 1.8 60 3.3 WSW 15 26 8 14 - - 3.4
26/03:30pm 9.8 5.6 3.8 66 2.8 SW 15 24 8 13 - - 3.4
26/03:00pm 10.1 6.4 4.3 67 2.8 W 13 20 7 11 - - 3.4
26/02:30pm 9.2 5.6 5.2 76 1.9 WSW 13 32 7 17 - - 3.4
26/02:00pm 9.6 6.7 6.3 80 1.6 WSW 11 20 6 11 - - 3.4
26/01:30pm 9.1 5.8 6.5 84 1.3 W 13 24 7 13 - - 3.4
26/01:00pm 8.1 4.9 6.9 92 0.6 W 13 26 7 14 - - 3.4
26/12:30pm 8.3 5.6 7.2 93 0.6 W 11 20 6 11 - - 3.4
26/12:00pm 8.5 6.8 8.4 99 0.1 W 7 17 4 9 - - 3.4
26/11:30am 6.8 4.7 6.7 99 0.0 W 7 13 4 7 - - 3.2
26/11:00am 6.3 4.3 6.2 99 0.0 W 6 11 3 6 - - 3.2
26/10:30am 5.8 2.7 5.7 99 0.0 SSW 11 28 6 15 - - 3.2
26/10:00am 7.9 5.7 7.9 100 0.0 WNW 9 13 5 7 - - 1.6
26/09:30am 7.8 5.6 7.8 100 0.0 WNW 9 20 5 11 - - 0.8
26/09:00am 7.8 6.0 7.8 100 0.0 WNW 7 13 4 7 - - 19.0
26/08:30am 7.8 6.0 7.8 100 0.0 WNW 7 19 4 10 - - 18.8
26/08:00am 7.8 4.4 7.8 100 0.0 NNW 15 24 8 13 - - 18.4
26/07:30am 7.8 4.8 7.8 100 0.0 NNW 13 22 7 12 - - 18.2
26/07:00am 7.6 5.0 7.6 100 0.0 NNW 11 17 6 9 - - 18.2
26/06:30am 7.3 5.0 7.3 100 0.0 NNW 9 15 5 8 - - 18.2
26/06:00am 7.6 4.6 7.6 100 0.0 NW 13 24 7 13 - - 18.2
26/05:30am 7.5 4.1 7.5 100 0.0 NNW 15 24 8 13 - - 18.0
26/05:00am 7.6 4.2 7.5 99 0.1 NNW 15 28 8 15 - - 16.0
26/04:30am 7.1 4.3 7.0 99 0.0 NNW 11 20 6 11 - - 15.4
26/04:00am 7.5 5.2 7.4 99 0.0 WNW 9 24 5 13 - - 13.6
26/03:30am 8.2 5.3 8.1 99 0.1 WNW 13 26 7 14 - - 9.6
26/03:00am 8.9 5.0 8.5 97 0.2 NNW 19 32 10 17 - - 6.2
26/02:30am 9.2 6.0 8.3 94 0.5 NNW 15 26 8 14 - - 6.2
26/02:00am 8.9 5.6 8.0 94 0.5 NNW 15 22 8 12 - - 6.2
26/01:30am 8.9 4.8 8.0 94 0.5 N 19 26 10 14 - - 6.2
26/01:00am 8.5 4.3 7.6 94 0.5 N 19 28 10 15 - - 6.2
26/12:30am 8.9 6.2 7.5 91 0.7 NNW 11 19 6 10 - - 6.2
26/12:00am 9.0 6.7 7.5 90 0.8 NNW 9 15 5 8 - - 6.2
 
Date/Time
EST
Temp
°C
App
Temp
°C
Dew
Point
Rel
Hum
%
Delta-T
°C
Wind Press
QNH
hPa
Press
MSL
hPa
Rain
since 9 am
mm
Dir
 
Spd
km/h
Gust
km/h
Spd
kts
Gust
kts
25/11:30pm 8.8 6.9 7.4 91 0.7 NW 7 13 4 7 - - 6.2
25/11:00pm 9.2 6.9 7.3 88 1.0 NW 9 17 5 9 - - 6.2
25/10:30pm 9.1 6.4 7.2 88 1.0 NNW 11 17 6 9 - - 6.2

Other Formats:

Comma delimited format used in spreadsheet applications
http://www.bom.gov.au/fwo/IDN60801/IDN60801.94754.axf

JavaScript Object Notation format (JSON) in row-major order
http://www.bom.gov.au/fwo/IDN60801/IDN60801.94754.json